createdAt,value
2022-09-06T00:00:59.353Z,13.82
2022-09-06T00:03:28.342Z,14.10
2022-09-06T00:05:55.540Z,13.63
2022-09-06T00:08:22.372Z,14.04
2022-09-06T00:11:01.147Z,13.90
2022-09-06T00:13:28.759Z,14.13
2022-09-06T00:15:55.683Z,14.01
2022-09-06T00:18:23.207Z,13.91
2022-09-06T00:20:50.096Z,13.73
2022-09-06T00:23:16.901Z,13.74
2022-09-06T00:25:43.692Z,13.58
2022-09-06T00:28:10.472Z,13.77
2022-09-06T00:30:37.403Z,13.81
2022-09-06T00:33:04.600Z,13.37
2022-09-06T00:35:31.473Z,13.72
2022-09-06T00:38:00.524Z,13.96
2022-09-06T00:40:30.028Z,13.79
2022-09-06T00:42:57.724Z,13.75
2022-09-06T00:45:28.103Z,13.51
2022-09-06T00:47:56.438Z,13.72
2022-09-06T00:50:23.395Z,13.57
2022-09-06T00:52:52.913Z,13.49
2022-09-06T00:55:21.655Z,13.67
2022-09-06T00:57:52.669Z,13.48
2022-09-06T01:00:20.719Z,13.64
2022-09-06T01:02:48.746Z,13.75
2022-09-06T01:05:16.702Z,13.64
2022-09-06T01:08:16.865Z,13.63
2022-09-06T01:10:54.142Z,13.53
2022-09-06T01:13:31.161Z,13.42
2022-09-06T01:15:58.017Z,13.47
2022-09-06T01:18:28.547Z,13.48
2022-09-06T01:21:29.214Z,13.50
2022-09-06T01:24:42.552Z,13.42
2022-09-06T01:27:28.043Z,13.38
2022-09-06T01:30:10.290Z,13.31
2022-09-06T01:33:01.911Z,13.31
2022-09-06T01:35:58.525Z,13.25
2022-09-06T01:38:25.530Z,13.20
2022-09-06T01:40:52.512Z,13.24
2022-09-06T01:43:35.371Z,13.01
2022-09-06T01:46:11.012Z,13.36
2022-09-06T01:48:55.473Z,13.20
2022-09-06T01:51:46.758Z,13.17
2022-09-06T01:54:35.087Z,13.20
2022-09-06T01:57:45.160Z,13.13
2022-09-06T02:00:18.161Z,12.91
2022-09-06T02:03:02.993Z,13.00
2022-09-06T02:05:46.083Z,13.12
2022-09-06T02:08:29.616Z,12.80
2022-09-06T02:11:02.753Z,12.70
2022-09-06T02:13:56.372Z,13.00
2022-09-06T02:16:26.905Z,12.97
2022-09-06T02:19:06.632Z,12.79
2022-09-06T02:21:37.252Z,12.81
2022-09-06T02:24:08.249Z,12.97
2022-09-06T02:26:38.971Z,12.72
2022-09-06T02:29:06.104Z,12.62
2022-09-06T02:31:39.011Z,12.75
2022-09-06T02:34:06.591Z,12.72
2022-09-06T02:36:36.928Z,12.69
2022-09-06T02:39:05.397Z,12.67
2022-09-06T02:41:33.410Z,12.40
2022-09-06T02:44:00.202Z,12.52
2022-09-06T02:46:27.103Z,12.40
2022-09-06T02:48:53.906Z,12.65
2022-09-06T02:51:20.919Z,12.63
2022-09-06T02:53:47.742Z,12.40
2022-09-06T02:56:14.931Z,12.70
2022-09-06T02:58:41.853Z,12.65
2022-09-06T03:01:09.290Z,12.47
2022-09-06T03:03:36.292Z,12.43
2022-09-06T03:06:03.199Z,12.10
2022-09-06T03:08:33.668Z,12.31
2022-09-06T03:11:01.420Z,12.09
2022-09-06T03:13:28.676Z,12.38
2022-09-06T03:15:59.854Z,12.22
2022-09-06T03:18:30.213Z,12.35
2022-09-06T03:20:58.128Z,12.57
2022-09-06T03:23:26.891Z,12.48
2022-09-06T03:25:54.425Z,12.55
2022-09-06T03:28:22.449Z,12.53
2022-09-06T03:30:51.112Z,12.16
2022-09-06T03:33:18.872Z,12.68
2022-09-06T03:35:53.222Z,12.69
2022-09-06T03:38:20.975Z,12.65
2022-09-06T03:40:49.293Z,12.50
2022-09-06T03:43:17.917Z,12.36
2022-09-06T03:46:03.836Z,12.40
2022-09-06T03:48:30.892Z,12.73
2022-09-06T03:50:58.982Z,12.39
2022-09-06T03:53:27.824Z,12.45
2022-09-06T03:55:57.764Z,12.53
2022-09-06T03:58:25.208Z,12.54
2022-09-06T04:01:05.420Z,12.19
2022-09-06T04:03:32.786Z,12.31
2022-09-06T04:05:59.632Z,12.39
2022-09-06T04:08:26.569Z,12.09
2022-09-06T04:10:55.337Z,12.38
2022-09-06T04:13:23.500Z,12.26
2022-09-06T04:15:51.336Z,12.42
2022-09-06T04:18:18.908Z,12.45
2022-09-06T04:20:48.551Z,12.16
2022-09-06T04:23:17.638Z,12.32
2022-09-06T04:25:48.920Z,12.32
2022-09-06T04:28:16.402Z,12.24
2022-09-06T04:30:51.839Z,12.03
2022-09-06T04:33:18.917Z,12.18
2022-09-06T04:35:50.178Z,11.90
2022-09-06T04:38:18.047Z,12.15
2022-09-06T04:40:45.071Z,12.19
2022-09-06T04:43:11.877Z,12.02
2022-09-06T04:45:42.971Z,12.30
2022-09-06T04:48:17.159Z,11.96
2022-09-06T04:50:44.086Z,11.76
2022-09-06T04:53:11.338Z,11.94
2022-09-06T04:55:43.473Z,11.76
2022-09-06T04:58:19.981Z,12.09
2022-09-06T05:00:50.175Z,12.35
2022-09-06T05:03:17.724Z,11.91
2022-09-06T05:05:44.662Z,12.19
2022-09-06T05:08:11.702Z,11.80
2022-09-06T05:10:38.817Z,12.36
2022-09-06T05:13:05.804Z,12.00
2022-09-06T05:15:33.786Z,11.84
2022-09-06T05:18:12.855Z,12.02
2022-09-06T05:20:42.568Z,11.96
2022-09-06T05:23:09.939Z,11.85
2022-09-06T05:25:42.841Z,11.88
2022-09-06T05:28:10.009Z,12.26
2022-09-06T05:31:25.553Z,12.44
2022-09-06T05:33:54.070Z,12.48
2022-09-06T05:36:24.477Z,12.04
2022-09-06T05:38:57.165Z,12.55
2022-09-06T05:41:24.825Z,12.39
2022-09-06T05:43:51.734Z,12.13
2022-09-06T05:46:19.051Z,12.50
2022-09-06T05:48:55.661Z,12.53
2022-09-06T05:51:22.677Z,12.29
2022-09-06T05:53:49.637Z,12.21
2022-09-06T05:56:17.358Z,12.27
2022-09-06T05:58:44.690Z,12.45
2022-09-06T06:01:17.716Z,12.96
2022-09-06T06:03:57.470Z,12.48
2022-09-06T06:06:26.126Z,12.90
2022-09-06T06:08:53.434Z,12.49
2022-09-06T06:11:20.972Z,12.41
2022-09-06T06:13:47.940Z,12.67
2022-09-06T06:16:17.577Z,13.00
2022-09-06T06:18:51.697Z,12.78
2022-09-06T06:21:32.128Z,13.20
2022-09-06T06:24:03.648Z,13.27
2022-09-06T06:26:33.289Z,13.21
2022-09-06T06:29:02.249Z,13.25
2022-09-06T06:31:31.021Z,13.25
2022-09-06T06:33:58.705Z,13.34
2022-09-06T06:36:31.686Z,13.82
2022-09-06T06:38:59.015Z,14.68
2022-09-06T06:41:28.125Z,14.98
2022-09-06T06:43:57.217Z,15.05
2022-09-06T06:46:30.357Z,15.33
2022-09-06T06:48:57.457Z,15.88
2022-09-06T06:51:31.524Z,15.99
2022-09-06T06:53:58.596Z,16.15
2022-09-06T06:56:28.460Z,16.66
2022-09-06T06:58:57.617Z,16.92
2022-09-06T07:01:26.676Z,17.06
2022-09-06T07:03:54.638Z,17.25
2022-09-06T07:09:09.119Z,17.66
2022-09-06T07:11:35.939Z,17.89
2022-09-06T07:14:02.783Z,17.89
2022-09-06T07:16:30.201Z,18.16
2022-09-06T07:18:57.118Z,17.93
2022-09-06T07:26:31.734Z,18.78
2022-09-06T07:29:02.995Z,19.00
2022-09-06T07:34:18.298Z,19.46
2022-09-06T07:39:14.329Z,20.09
2022-09-06T07:41:41.162Z,20.18
2022-09-06T07:44:07.997Z,20.21
2022-09-06T07:46:34.904Z,20.22
2022-09-06T07:49:04.451Z,20.21
2022-09-06T07:51:31.517Z,20.31
2022-09-06T07:54:26.343Z,20.60
2022-09-06T07:56:48.276Z,20.30
2022-09-06T07:59:15.747Z,20.21
2022-09-06T08:01:43.036Z,20.54
2022-09-06T08:04:14.961Z,20.64
2022-09-06T08:09:33.863Z,20.77
2022-09-06T08:12:06.871Z,20.97
2022-09-06T08:14:35.194Z,21.24
2022-09-06T08:17:02.780Z,21.46
2022-09-06T08:19:29.690Z,22.10
2022-09-06T08:21:56.868Z,22.32
2022-09-06T08:24:23.712Z,22.43
2022-09-06T08:26:50.876Z,22.43
2022-09-06T08:29:19.032Z,22.10
2022-09-06T08:31:46.547Z,22.44
2022-09-06T08:34:14.676Z,22.44
2022-09-06T08:36:41.814Z,22.67
2022-09-06T08:39:10.484Z,22.61
2022-09-06T08:41:40.370Z,22.78
2022-09-06T08:47:12.365Z,23.26
2022-09-06T08:49:43.198Z,23.52
2022-09-06T08:52:22.078Z,23.73
2022-09-06T08:58:26.970Z,23.70
2022-09-06T09:01:18.394Z,23.44
2022-09-06T09:03:47.259Z,23.61
2022-09-06T09:06:14.366Z,23.57
2022-09-06T09:08:57.343Z,23.69
2022-09-06T09:11:25.743Z,23.85
2022-09-06T09:13:59.431Z,23.96
2022-09-06T09:16:26.802Z,24.05
2022-09-06T09:19:01.211Z,24.72
2022-09-06T09:23:56.459Z,24.88
2022-09-06T09:26:26.998Z,24.90
2022-09-06T09:29:11.901Z,24.89
2022-09-06T09:31:53.480Z,24.64
2022-09-06T09:34:36.384Z,24.64
2022-09-06T09:39:56.672Z,25.25
2022-09-06T09:45:21.791Z,25.69
2022-09-06T09:47:48.879Z,25.74
2022-09-06T09:53:12.001Z,26.26
2022-09-06T10:09:36.547Z,27.36
2022-09-06T10:12:03.687Z,27.55
2022-09-06T10:14:44.265Z,27.64
2022-09-06T10:17:38.473Z,27.88
2022-09-06T10:20:10.595Z,28.02
2022-09-06T10:28:46.247Z,28.09
2022-09-06T10:31:36.984Z,28.49
2022-09-06T10:34:11.166Z,28.91
2022-09-06T10:36:41.134Z,29.16
2022-09-06T10:41:51.787Z,27.64
2022-09-06T10:46:46.833Z,27.26
2022-09-06T10:49:18.806Z,27.06
2022-09-06T10:51:52.115Z,26.78
2022-09-06T10:54:23.772Z,27.34
2022-09-06T10:57:01.107Z,27.18
2022-09-06T10:59:38.402Z,26.86
2022-09-06T11:02:24.543Z,26.74
2022-09-06T11:10:34.828Z,27.24
2022-09-06T11:13:18.173Z,27.92
2022-09-06T11:16:11.566Z,28.19
2022-09-06T11:21:31.547Z,28.52
2022-09-06T11:26:40.711Z,28.89
2022-09-06T11:29:16.883Z,29.02
2022-09-06T11:34:30.601Z,29.30
2022-09-06T11:37:09.407Z,29.54
2022-09-06T11:42:32.439Z,29.45
2022-09-06T11:44:59.182Z,29.24
2022-09-06T11:53:00.829Z,28.55
2022-09-06T11:58:12.453Z,28.26
2022-09-06T12:00:39.293Z,28.95
2022-09-06T12:06:12.460Z,28.42
2022-09-06T12:08:39.554Z,28.58
2022-09-06T12:11:32.481Z,28.68
2022-09-06T12:16:42.441Z,29.13
2022-09-06T12:19:09.742Z,29.35
2022-09-06T12:21:46.705Z,29.63
2022-09-06T12:24:35.391Z,30.13
2022-09-06T12:27:15.916Z,29.77
2022-09-06T12:38:25.845Z,28.38
2022-09-06T12:40:58.606Z,28.39
2022-09-06T12:43:26.213Z,28.76
2022-09-06T12:45:53.322Z,29.25
2022-09-06T12:48:29.268Z,28.92
2022-09-06T12:53:35.158Z,29.69
2022-09-06T12:56:09.776Z,29.86
2022-09-06T12:58:37.631Z,29.59
2022-09-06T13:01:23.856Z,29.72
2022-09-06T13:04:06.475Z,29.42
2022-09-06T13:06:41.967Z,28.69
2022-09-06T13:09:13.215Z,28.57
2022-09-06T13:11:48.285Z,29.33
2022-09-06T13:14:28.084Z,29.87
2022-09-06T13:16:58.314Z,29.91
2022-09-06T13:19:30.993Z,29.99
2022-09-06T13:21:58.773Z,29.66
2022-09-06T13:24:47.835Z,30.17
2022-09-06T13:27:36.837Z,30.64
2022-09-06T13:30:09.801Z,30.52
2022-09-06T13:32:45.676Z,31.03
2022-09-06T13:35:24.095Z,30.70
2022-09-06T13:37:51.165Z,30.68
2022-09-06T13:41:10.697Z,31.19
2022-09-06T13:43:24.954Z,31.49
2022-09-06T13:48:44.746Z,31.67
2022-09-06T13:51:11.846Z,31.05
2022-09-06T13:53:38.898Z,31.01
2022-09-06T13:56:09.059Z,31.10
2022-09-06T13:58:36.898Z,31.28
2022-09-06T14:03:33.315Z,31.69
2022-09-06T14:06:12.571Z,31.87
2022-09-06T14:09:03.291Z,31.43
2022-09-06T14:11:14.253Z,31.05
2022-09-06T14:13:41.241Z,31.28
2022-09-06T14:16:08.669Z,30.92
2022-09-06T14:18:36.404Z,30.21
2022-09-06T14:21:05.519Z,29.94
2022-09-06T14:26:05.757Z,30.89
2022-09-06T14:28:34.280Z,31.05
2022-09-06T14:31:16.307Z,31.48
2022-09-06T14:33:49.589Z,31.21
2022-09-06T14:36:19.383Z,31.59
2022-09-06T14:38:47.696Z,31.69
2022-09-06T14:41:16.024Z,31.19
2022-09-06T14:43:44.518Z,31.32
2022-09-06T14:48:43.703Z,30.96
2022-09-06T14:51:22.212Z,30.68
2022-09-06T14:53:52.014Z,30.25
2022-09-06T14:56:20.084Z,29.92
2022-09-06T14:58:47.395Z,30.05
2022-09-06T15:01:15.225Z,30.19
2022-09-06T15:03:46.647Z,30.02
2022-09-06T15:06:13.543Z,29.24
2022-09-06T15:08:40.331Z,29.75
2022-09-06T15:11:08.397Z,29.59
2022-09-06T15:13:37.385Z,29.08
2022-09-06T15:16:06.054Z,29.03
2022-09-06T15:18:35.269Z,28.84
2022-09-06T15:21:08.972Z,28.55
2022-09-06T15:23:35.843Z,28.15
2022-09-06T15:26:02.863Z,28.27
2022-09-06T15:28:29.784Z,28.71
2022-09-06T15:30:56.615Z,28.64
2022-09-06T15:33:23.568Z,28.42
2022-09-06T15:36:06.625Z,27.95
2022-09-06T15:38:34.609Z,27.44
2022-09-06T15:41:10.762Z,27.08
2022-09-06T15:43:44.313Z,26.86
2022-09-06T15:46:11.223Z,26.89
2022-09-06T15:48:46.526Z,26.87
2022-09-06T15:51:17.882Z,26.93
2022-09-06T15:53:45.502Z,26.70
2022-09-06T15:56:14.927Z,26.52
2022-09-06T15:58:42.046Z,26.85
2022-09-06T16:01:19.075Z,26.70
2022-09-06T16:03:49.201Z,26.71
2022-09-06T16:08:51.552Z,26.27
2022-09-06T16:11:18.811Z,26.18
2022-09-06T16:13:46.522Z,26.17
2022-09-06T16:16:15.807Z,26.17
2022-09-06T16:18:43.764Z,26.14
2022-09-06T16:21:12.416Z,25.88
2022-09-06T16:23:40.545Z,25.78
2022-09-06T16:26:09.050Z,25.86
2022-09-06T16:28:37.564Z,25.50
2022-09-06T16:31:07.122Z,25.39
2022-09-06T16:33:35.986Z,24.99
2022-09-06T16:36:05.895Z,24.89
2022-09-06T16:38:34.222Z,24.91
2022-09-06T16:41:22.163Z,24.57
2022-09-06T16:43:49.643Z,24.27
2022-09-06T16:46:17.630Z,24.26
2022-09-06T16:48:51.493Z,24.07
2022-09-06T16:51:20.242Z,23.92
2022-09-06T16:53:48.175Z,23.70
2022-09-06T16:56:18.372Z,23.53
2022-09-06T16:58:51.893Z,23.41
2022-09-06T17:01:19.909Z,22.95
2022-09-06T17:03:48.229Z,22.93
2022-09-06T17:06:15.653Z,22.71
2022-09-06T17:08:45.425Z,22.59
2022-09-06T17:11:18.066Z,22.57
2022-09-06T17:13:47.995Z,22.27
2022-09-06T17:16:34.016Z,22.21
2022-09-06T17:19:02.914Z,22.11
2022-09-06T17:21:30.391Z,21.98
2022-09-06T17:24:03.574Z,21.71
2022-09-06T17:26:32.170Z,21.59
2022-09-06T17:28:59.500Z,21.44
2022-09-06T17:31:28.686Z,21.35
2022-09-06T17:33:56.662Z,21.49
2022-09-06T17:36:26.097Z,21.29
2022-09-06T17:38:59.332Z,21.06
2022-09-06T17:41:29.322Z,20.85
2022-09-06T17:43:57.846Z,21.02
2022-09-06T17:46:28.891Z,20.87
2022-09-06T17:48:56.722Z,20.64
2022-09-06T17:51:24.609Z,20.59
2022-09-06T17:53:52.506Z,20.53
2022-09-06T17:56:20.431Z,20.39
2022-09-06T17:58:58.064Z,20.36
2022-09-06T18:01:29.527Z,20.34
2022-09-06T18:03:57.908Z,20.13
2022-09-06T18:06:30.105Z,20.24
2022-09-06T18:09:00.215Z,20.08
2022-09-06T18:11:30.185Z,19.97
2022-09-06T18:14:09.812Z,19.83
2022-09-06T18:16:38.095Z,19.78
2022-09-06T18:19:07.112Z,19.91
2022-09-06T18:21:37.198Z,19.76
2022-09-06T18:24:05.016Z,19.55
2022-09-06T18:26:32.919Z,19.61
2022-09-06T18:29:00.283Z,19.29
2022-09-06T18:31:28.243Z,19.23
2022-09-06T18:33:59.412Z,19.15
2022-09-06T18:36:31.802Z,19.14
2022-09-06T18:39:03.252Z,19.15
2022-09-06T18:41:49.280Z,18.97
2022-09-06T18:44:18.037Z,19.08
2022-09-06T18:46:45.327Z,19.01
2022-09-06T18:49:15.884Z,18.88
2022-09-06T18:51:43.404Z,18.70
2022-09-06T18:54:12.754Z,18.74
2022-09-06T18:56:40.627Z,18.62
2022-09-06T18:59:08.748Z,18.49
2022-09-06T19:01:37.278Z,18.44
2022-09-06T19:04:06.174Z,18.48
2022-09-06T19:06:35.276Z,18.54
2022-09-06T19:09:07.155Z,18.42
2022-09-06T19:11:36.990Z,18.41
2022-09-06T19:14:06.745Z,18.45
2022-09-06T19:16:35.066Z,18.49
2022-09-06T19:19:09.540Z,18.35
2022-09-06T19:21:41.637Z,18.09
2022-09-06T19:24:11.517Z,18.02
2022-09-06T19:26:42.028Z,17.91
2022-09-06T19:29:14.747Z,18.01
2022-09-06T19:31:44.322Z,18.00
2022-09-06T19:34:14.209Z,17.93
2022-09-06T19:36:41.332Z,17.96
2022-09-06T19:39:10.801Z,17.98
2022-09-06T19:41:41.022Z,17.88
2022-09-06T19:44:11.628Z,17.75
2022-09-06T19:46:45.426Z,17.66
2022-09-06T19:49:15.241Z,17.70
2022-09-06T19:51:45.562Z,17.61
2022-09-06T19:54:13.053Z,17.70
2022-09-06T19:56:40.411Z,17.52
2022-09-06T19:59:09.603Z,17.39
2022-09-06T20:01:40.135Z,17.49
2022-09-06T20:04:09.266Z,17.36
2022-09-06T20:06:37.001Z,17.18
2022-09-06T20:09:07.338Z,17.29
2022-09-06T20:11:36.136Z,17.24
2022-09-06T20:14:04.050Z,17.18
2022-09-06T20:16:31.267Z,17.17
2022-09-06T20:18:59.588Z,17.12
2022-09-06T20:21:28.434Z,17.11
2022-09-06T20:23:57.317Z,17.21
2022-09-06T20:26:26.029Z,17.05
2022-09-06T20:28:58.390Z,16.93
2022-09-06T20:31:27.082Z,16.83
2022-09-06T20:33:54.276Z,16.88
2022-09-06T20:36:21.658Z,16.83
2022-09-06T20:38:49.107Z,16.84
2022-09-06T20:41:17.885Z,16.82
2022-09-06T20:43:46.968Z,16.90
2022-09-06T20:46:19.637Z,16.88
2022-09-06T20:48:47.415Z,16.65
2022-09-06T20:51:19.581Z,16.60
2022-09-06T20:53:51.222Z,16.57
2022-09-06T20:56:23.100Z,16.58
2022-09-06T20:58:57.703Z,16.57
2022-09-06T21:01:26.257Z,16.63
2022-09-06T21:03:55.780Z,16.66
2022-09-06T21:06:23.742Z,16.45
2022-09-06T21:08:50.821Z,16.32
2022-09-06T21:11:18.381Z,16.33
2022-09-06T21:13:51.041Z,16.31
2022-09-06T21:16:24.009Z,16.58
2022-09-06T21:18:56.187Z,16.48
2022-09-06T21:21:24.114Z,16.35
2022-09-06T21:23:51.352Z,16.18
2022-09-06T21:26:18.432Z,16.15
2022-09-06T21:28:46.723Z,16.09
2022-09-06T21:31:25.101Z,16.06
2022-09-06T21:33:54.379Z,16.20
2022-09-06T21:36:29.379Z,16.28
2022-09-06T21:38:59.264Z,16.13
2022-09-06T21:41:26.844Z,15.88
2022-09-06T21:43:56.233Z,15.92
2022-09-06T21:46:28.975Z,15.91
2022-09-06T21:49:00.190Z,15.98
2022-09-06T21:51:28.012Z,15.82
2022-09-06T21:53:57.018Z,15.75
2022-09-06T21:56:24.819Z,15.71
2022-09-06T21:58:56.863Z,16.00
2022-09-06T22:01:25.057Z,15.74
2022-09-06T22:03:53.125Z,15.64
2022-09-06T22:06:28.991Z,15.55
2022-09-06T22:08:57.788Z,15.67
2022-09-06T22:11:27.284Z,15.64
2022-09-06T22:13:54.332Z,15.52
2022-09-06T22:16:22.685Z,15.48
2022-09-06T22:18:50.305Z,15.45
2022-09-06T22:21:20.369Z,15.44
2022-09-06T22:23:55.523Z,15.35
2022-09-06T22:26:24.406Z,15.36
2022-09-06T22:28:59.714Z,15.35
2022-09-06T22:31:27.992Z,15.40
2022-09-06T22:33:55.590Z,15.51
2022-09-06T22:36:23.930Z,15.26
2022-09-06T22:38:57.735Z,15.20
2022-09-06T22:41:27.910Z,15.17
2022-09-06T22:43:54.759Z,15.15
2022-09-06T22:46:22.034Z,15.29
2022-09-06T22:48:49.354Z,15.22
2022-09-06T22:51:16.443Z,15.07
2022-09-06T22:53:43.143Z,14.94
2022-09-06T22:56:10.006Z,14.96
2022-09-06T22:58:37.033Z,14.82
2022-09-06T23:03:31.547Z,14.86
2022-09-06T23:06:01.836Z,14.87
2022-09-06T23:08:29.190Z,14.89
2022-09-06T23:10:55.935Z,14.86
2022-09-06T23:13:22.707Z,14.72
2022-09-06T23:15:49.562Z,14.76
2022-09-06T23:18:16.360Z,14.65
2022-09-06T23:20:43.298Z,14.72
2022-09-06T23:23:10.055Z,14.88
2022-09-06T23:25:40.507Z,14.80
2022-09-06T23:28:07.354Z,14.61
2022-09-06T23:30:38.425Z,14.69
2022-09-06T23:33:05.874Z,14.67
2022-09-06T23:35:32.604Z,14.54
2022-09-06T23:37:59.435Z,14.60
2022-09-06T23:40:26.156Z,14.56
2022-09-06T23:42:52.935Z,14.56
2022-09-06T23:45:19.696Z,14.53
2022-09-06T23:47:46.446Z,14.48
2022-09-06T23:50:13.266Z,14.50
2022-09-06T23:52:39.984Z,14.55
2022-09-06T23:55:09.389Z,14.61
2022-09-06T23:57:36.207Z,14.50
